Time;durP1;ratioP1;P1;durP2;ratioP2;P2;SDS_P1;SDS_P2;PMS_P1;PMS_P2;Temp;Humidity;BMP_temperature;BMP_pressure;BME280_temperature;BME280_humidity;BME280_pressure;Samples;Min_cycle;Max_cycle;Signal;HPM_P1;HPM_P2
2022/07/29 00:01:47;;;;;;;3.65;1.33;;;17.10;55.60;;;;;;5033174;28;20045;-68
2022/07/29 00:04:13;;;;;;;3.67;1.05;;;17.10;55.60;;;;;;5033321;28;20044;-67
2022/07/29 00:06:38;;;;;;;3.90;1.48;;;17.00;55.50;;;;;;5033110;28;20513;-68
2022/07/29 00:09:04;;;;;;;3.25;1.40;;;17.10;55.60;;;;;;5033089;28;20474;-67
2022/07/29 00:11:30;;;;;;;1.50;0.85;;;17.00;55.70;;;;;;5033003;28;20033;-68
2022/07/29 00:13:55;;;;;;;2.80;1.15;;;17.10;55.80;;;;;;5032952;28;20037;-67
2022/07/29 00:16:21;;;;;;;2.55;1.10;;;17.00;55.80;;;;;;5034162;28;20458;-69
2022/07/29 00:18:47;;;;;;;2.53;1.00;;;17.00;55.80;;;;;;5032957;28;20431;-68
2022/07/29 00:21:13;;;;;;;2.67;1.13;;;17.00;56.00;;;;;;5032497;28;20056;-68
2022/07/29 00:23:38;;;;;;;3.25;1.27;;;16.90;56.00;;;;;;5032483;28;20402;-67
2022/07/29 00:26:04;;;;;;;3.20;1.30;;;16.90;56.00;;;;;;5034038;28;20069;-67
2022/07/29 00:28:30;;;;;;;3.30;1.13;;;16.90;56.10;;;;;;5033985;28;20048;-67
2022/07/29 00:30:55;;;;;;;1.92;1.20;;;16.90;56.10;;;;;;5032751;28;20538;-67
2022/07/29 00:33:21;;;;;;;1.58;1.00;;;16.90;56.20;;;;;;5033945;28;20077;-68
2022/07/29 00:35:47;;;;;;;2.60;1.13;;;16.90;56.10;;;;;;5034010;28;20045;-66
2022/07/29 00:38:20;;;;;;;3.45;1.10;;;16.90;56.20;;;;;;5032407;28;20107;-68
2022/07/29 00:40:47;;;;;;;1.37;0.80;;;16.90;56.30;;;;;;5032378;28;20130;-67
2022/07/29 00:43:14;;;;;;;3.65;1.48;;;16.90;56.30;;;;;;5033570;28;20283;-68
2022/07/29 00:45:41;;;;;;;3.38;1.30;;;16.80;56.40;;;;;;5033855;28;20037;-68
2022/07/29 00:48:08;;;;;;;3.15;1.42;;;16.80;56.50;;;;;;5033118;28;20041;-68
2022/07/29 00:50:35;;;;;;;3.25;1.33;;;16.80;56.40;;;;;;5032288;28;20091;-67
2022/07/29 00:53:02;;;;;;;2.28;1.20;;;16.80;56.40;;;;;;5032263;28;20045;-68
2022/07/29 00:55:28;;;;;;;2.97;1.30;;;16.80;56.50;;;;;;5033427;28;20092;-68
2022/07/29 00:57:55;;;;;;;2.72;1.17;;;16.80;56.50;;;;;;5033349;28;20041;-68
2022/07/29 01:00:24;;;;;;;2.67;1.23;;;16.80;56.50;;;;;;5048586;28;20049;-67
2022/07/29 01:02:50;;;;;;;1.92;0.95;;;16.80;56.50;;;;;;5033330;28;20552;-67
2022/07/29 01:05:18;;;;;;;1.92;1.10;;;16.80;56.60;;;;;;5032197;28;20390;-68
2022/07/29 01:07:45;;;;;;;1.65;1.10;;;16.80;56.70;;;;;;5033274;28;20033;-67
2022/07/29 01:10:13;;;;;;;2.92;1.00;;;16.80;56.60;;;;;;5032125;28;20045;-67
2022/07/29 01:12:40;;;;;;;2.42;1.30;;;16.80;56.70;;;;;;5031960;28;20056;-68
2022/07/29 01:15:07;;;;;;;2.78;1.13;;;16.80;56.80;;;;;;5031633;28;20053;-67
2022/07/29 01:17:57;;;;;;;3.95;1.63;;;16.80;57.10;;;;;;5031997;28;20556;-67
2022/07/29 01:20:47;;;;;;;3.47;1.35;;;16.80;56.90;;;;;;5031631;28;20044;-67
2022/07/29 01:23:40;;;;;;;2.72;1.42;;;16.80;56.80;;;;;;5033174;28;20046;-69
2022/07/29 01:26:42;;;;;;;2.22;1.30;;;16.80;56.90;;;;;;5031716;28;20057;-68
2022/07/29 01:29:23;;;;;;;3.65;1.50;;;16.80;56.90;;;;;;5032002;28;20050;-70
2022/07/29 01:32:00;;;;;;;3.72;1.40;;;16.70;56.90;;;;;;5031658;28;20044;-68
2022/07/29 01:35:04;;;;;;;3.17;1.27;;;16.80;57.10;;;;;;5031589;28;20041;-68
2022/07/29 01:37:43;;;;;;;5.35;1.42;;;16.70;57.60;;;;;;5031647;28;20521;-68
2022/07/29 01:40:26;;;;;;;4.03;1.40;;;16.70;57.00;;;;;;5031487;28;20056;-68
2022/07/29 01:42:59;;;;;;;4.75;1.20;;;16.70;57.00;;;;;;5031601;28;20129;-62
2022/07/29 01:45:55;;;;;;;2.55;1.08;;;16.70;57.10;;;;;;5031698;28;20475;-62
2022/07/29 01:48:27;;;;;;;3.40;1.30;;;16.70;57.20;;;;;;5032705;28;20037;-64
2022/07/29 01:51:01;;;;;;;2.53;1.40;;;16.70;57.20;;;;;;5031410;28;20124;-63
2022/07/29 01:53:35;;;;;;;3.22;1.17;;;16.70;57.30;;;;;;5031412;28;20051;-63
2022/07/29 01:56:02;;;;;;;1.58;1.00;;;16.70;57.20;;;;;;5032601;28;20503;-63
2022/07/29 01:58:30;;;;;;;3.42;1.45;;;16.70;57.10;;;;;;5015186;28;20077;-64
2022/07/29 02:00:58;;;;;;;2.70;1.45;;;16.70;57.20;;;;;;5035439;28;20038;-63
2022/07/29 02:03:25;;;;;;;3.28;1.23;;;16.70;57.20;;;;;;5035672;28;20466;-67
2022/07/29 02:05:53;;;;;;;4.88;1.58;;;16.70;57.20;;;;;;5035714;28;20437;-67
2022/07/29 02:08:19;;;;;;;2.30;1.10;;;16.80;57.30;;;;;;5035318;28;20041;-68
2022/07/29 02:10:47;;;;;;;2.80;1.55;;;16.80;57.20;;;;;;5035508;28;20182;-67
2022/07/29 02:13:13;;;;;;;2.88;1.15;;;16.80;57.30;;;;;;5018817;28;20041;-67
2022/07/29 02:15:42;;;;;;;2.38;1.00;;;16.80;57.30;;;;;;5035261;28;20056;-67
2022/07/29 02:18:21;;;;;;;4.13;1.60;;;16.80;57.40;;;;;;5035363;28;20120;-67
2022/07/29 02:20:49;;;;;;;3.53;1.20;;;16.80;57.30;;;;;;5034954;28;20046;-67
2022/07/29 02:23:19;;;;;;;5.35;1.40;;;16.80;57.30;;;;;;5036207;28;20051;-67
2022/07/29 02:25:47;;;;;;;2.63;1.27;;;16.80;57.30;;;;;;5036365;28;20056;-67
2022/07/29 02:28:14;;;;;;;1.65;0.90;;;16.80;57.30;;;;;;5035225;28;20467;-67
2022/07/29 02:30:42;;;;;;;3.13;1.17;;;16.80;57.30;;;;;;5034911;28;20137;-67
2022/07/29 02:33:11;;;;;;;3.95;1.40;;;16.80;57.20;;;;;;5036034;28;20045;-67
2022/07/29 02:35:39;;;;;;;3.78;1.73;;;16.80;57.30;;;;;;5036164;28;20406;-67
2022/07/29 02:40:51;;;;;;;2.97;1.13;;;16.90;57.20;;;;;;5034791;28;20446;-67
2022/07/29 02:43:18;;;;;;;3.50;1.25;;;16.90;57.20;;;;;;5035866;28;20038;-69
2022/07/29 02:45:47;;;;;;;2.50;1.15;;;16.90;57.30;;;;;;5035951;28;20041;-69
2022/07/29 02:48:16;;;;;;;3.40;1.20;;;16.90;57.20;;;;;;5035948;28;20044;-63
2022/07/29 02:50:55;;;;;;;2.00;1.15;;;16.90;57.30;;;;;;5035717;28;20419;-63
2022/07/29 02:53:26;;;;;;;3.60;1.05;;;16.90;57.30;;;;;;5034676;28;20080;-63
2022/07/29 02:55:56;;;;;;;3.65;1.30;;;16.80;57.10;;;;;;5034514;28;20049;-69
2022/07/29 02:58:28;;;;;;;4.45;1.98;;;16.90;57.20;;;;;;5034680;28;20114;-68
2022/07/29 03:00:56;;;;;;;4.82;1.35;;;16.80;57.10;;;;;;5035535;28;20453;-68
2022/07/29 03:03:25;;;;;;;2.75;1.40;;;16.80;57.20;;;;;;5035547;28;20176;-67
2022/07/29 03:05:57;;;;;;;2.15;1.15;;;16.90;57.20;;;;;;5034380;28;20084;-67
2022/07/29 03:08:24;;;;;;;4.32;1.30;;;16.80;57.00;;;;;;5034563;28;20107;-67
2022/07/29 03:10:51;;;;;;;3.08;1.27;;;16.80;57.40;;;;;;5033607;28;20041;-68
2022/07/29 03:13:18;;;;;;;3.53;1.10;;;16.80;57.00;;;;;;5035394;28;20398;-68
2022/07/29 03:15:45;;;;;;;6.50;1.48;;;16.80;57.00;;;;;;5034012;28;20056;-68
2022/07/29 03:18:11;;;;;;;2.50;1.08;;;16.80;57.00;;;;;;5035484;28;20037;-68
2022/07/29 03:20:40;;;;;;;2.72;1.15;;;16.90;56.90;;;;;;5034002;28;20049;-63
2022/07/29 03:23:07;;;;;;;2.40;1.00;;;16.80;57.10;;;;;;5033672;28;20057;-63
2022/07/29 03:25:33;;;;;;;2.70;1.17;;;16.90;56.70;;;;;;5033909;28;20179;-63
2022/07/29 03:27:59;;;;;;;1.90;1.00;;;16.90;56.70;;;;;;5050426;28;20120;-63
2022/07/29 03:30:25;;;;;;;2.85;1.10;;;16.90;56.60;;;;;;5033973;28;20046;-63
2022/07/29 03:32:52;;;;;;;2.80;1.10;;;16.90;56.60;;;;;;5034053;28;20444;-63
2022/07/29 03:35:19;;;;;;;3.80;1.58;;;16.90;56.60;;;;;;5033662;28;20080;-63
2022/07/29 03:37:45;;;;;;;2.47;1.10;;;16.90;56.60;;;;;;5033653;28;20049;-63
2022/07/29 03:40:19;;;;;;;4.00;1.20;;;16.90;56.50;;;;;;5033590;28;20050;-64
2022/07/29 03:42:45;;;;;;;;;;;16.90;56.40;;;;;;5034100;28;20049;-64
2022/07/29 03:45:13;;;;;;;3.75;1.38;;;16.90;56.30;;;;;;5034770;28;19917;-63
2022/07/29 03:47:45;;;;;;;3.05;1.10;;;16.90;56.60;;;;;;5033263;28;20053;-63
2022/07/29 03:50:14;;;;;;;2.60;1.63;;;16.90;56.50;;;;;;5034613;28;20037;-63
2022/07/29 03:52:40;;;;;;;2.63;1.40;;;16.90;56.50;;;;;;5033224;28;20041;-63
2022/07/29 03:55:07;;;;;;;3.58;1.20;;;16.80;56.40;;;;;;5034344;28;20045;-63
2022/07/29 03:57:34;;;;;;;3.75;1.13;;;16.80;56.50;;;;;;5033257;28;20084;-63
2022/07/29 04:00:03;;;;;;;1.52;1.10;;;16.80;56.50;;;;;;5033345;28;20490;-63
2022/07/29 04:02:29;;;;;;;3.10;1.10;;;16.80;56.40;;;;;;5033342;28;20046;-63
2022/07/29 04:04:55;;;;;;;4.20;1.45;;;16.80;56.50;;;;;;5034490;28;20045;-63
2022/07/29 04:07:21;;;;;;;3.85;1.40;;;16.80;56.50;;;;;;5033098;28;20379;-63
2022/07/29 04:09:47;;;;;;;5.55;1.50;;;16.80;56.50;;;;;;5032993;28;20445;-68
2022/07/29 04:12:12;;;;;;;1.83;1.10;;;16.80;56.50;;;;;;5034408;28;20170;-69
2022/07/29 04:14:38;;;;;;;3.00;1.13;;;16.70;56.40;;;;;;5033322;28;20502;-69
2022/07/29 04:17:05;;;;;;;3.35;1.42;;;16.70;56.50;;;;;;5032960;28;20478;-68
2022/07/29 04:19:31;;;;;;;4.85;1.38;;;16.70;56.50;;;;;;5034085;28;20049;-68
2022/07/29 04:21:58;;;;;;;3.33;0.93;;;16.70;56.60;;;;;;5032136;28;20478;-68
2022/07/29 04:24:24;;;;;;;2.03;0.90;;;16.70;56.60;;;;;;5048807;28;20065;-68
2022/07/29 04:26:49;;;;;;;3.75;1.70;;;16.70;56.70;;;;;;5032639;28;20049;-68
2022/07/29 04:29:15;;;;;;;2.45;1.15;;;16.70;56.70;;;;;;5032617;28;20121;-68
2022/07/29 04:31:41;;;;;;;4.00;1.42;;;16.60;56.60;;;;;;5033939;28;20132;-68
2022/07/29 04:34:08;;;;;;;2.20;1.15;;;16.60;56.70;;;;;;5032938;28;20132;-64
2022/07/29 04:36:34;;;;;;;3.83;1.10;;;16.60;56.70;;;;;;5049102;28;20045;-68
2022/07/29 04:39:01;;;;;;;4.05;1.25;;;16.60;56.70;;;;;;5032609;28;20478;-68
2022/07/29 04:41:27;;;;;;;3.47;1.33;;;16.60;56.80;;;;;;5032287;28;20080;-68
2022/07/29 04:43:53;;;;;;;2.55;1.15;;;16.60;56.80;;;;;;5032800;28;20122;-68
2022/07/29 04:46:19;;;;;;;4.28;1.20;;;16.60;56.80;;;;;;5033722;28;20482;-68
2022/07/29 04:48:47;;;;;;;1.95;1.02;;;16.60;56.90;;;;;;5033686;28;20616;-68
2022/07/29 04:51:14;;;;;;;4.63;1.40;;;16.60;56.90;;;;;;5033480;28;20437;-68
2022/07/29 04:53:40;;;;;;;2.88;1.50;;;16.50;56.80;;;;;;5032233;28;20091;-68
2022/07/29 04:56:05;;;;;;;2.53;1.33;;;16.50;56.90;;;;;;5032220;28;20041;-68
2022/07/29 04:58:33;;;;;;;4.72;1.45;;;16.50;56.90;;;;;;5032558;28;20128;-68
2022/07/29 05:00:59;;;;;;;3.70;1.27;;;16.50;57.00;;;;;;5032033;28;20053;-68
2022/07/29 05:03:25;;;;;;;2.92;1.30;;;16.50;57.00;;;;;;5033404;28;20096;-68
2022/07/29 05:05:50;;;;;;;3.50;1.52;;;16.50;57.00;;;;;;5033237;28;20079;-68
2022/07/29 05:08:16;;;;;;;2.03;1.10;;;16.50;57.00;;;;;;5033293;28;20079;-69
2022/07/29 05:10:42;;;;;;;3.53;1.30;;;16.50;57.20;;;;;;5031900;28;20053;-68
2022/07/29 05:13:07;;;;;;;3.13;1.30;;;16.50;57.20;;;;;;5031881;28;20045;-67
2022/07/29 05:15:35;;;;;;;2.88;1.27;;;16.50;57.10;;;;;;5031839;28;20132;-68
2022/07/29 05:18:01;;;;;;;2.33;1.38;;;16.50;57.10;;;;;;5031965;28;20049;-62
2022/07/29 05:20:28;;;;;;;3.83;1.27;;;16.50;57.10;;;;;;5032982;28;20045;-63
2022/07/29 05:22:59;;;;;;;3.42;1.38;;;16.50;57.20;;;;;;5033173;28;20052;-63
2022/07/29 05:25:26;;;;;;;4.85;1.60;;;16.50;57.20;;;;;;5032107;28;20048;-63
2022/07/29 05:27:52;;;;;;;4.80;1.40;;;16.50;57.30;;;;;;5031857;28;20052;-63
2022/07/29 05:30:18;;;;;;;2.72;1.17;;;16.50;57.20;;;;;;5031658;28;20124;-67
2022/07/29 05:32:43;;;;;;;2.65;1.40;;;16.50;57.10;;;;;;5031963;28;20124;-67
2022/07/29 05:35:09;;;;;;;4.18;1.30;;;16.50;57.20;;;;;;5031400;28;20052;-67
2022/07/29 05:37:35;;;;;;;2.72;1.33;;;16.50;57.20;;;;;;5031607;28;20048;-68
2022/07/29 05:40:02;;;;;;;4.30;1.55;;;16.60;57.40;;;;;;5031634;28;20050;-67
2022/07/29 05:42:28;;;;;;;3.17;1.50;;;16.60;57.50;;;;;;5031642;28;20088;-67
2022/07/29 05:44:54;;;;;;;3.47;1.10;;;16.60;57.40;;;;;;5031721;28;20041;-67
2022/07/29 05:47:20;;;;;;;2.97;1.30;;;16.60;57.40;;;;;;5031894;28;20597;-67
2022/07/29 05:49:46;;;;;;;5.03;1.27;;;16.70;57.50;;;;;;5031671;28;20053;-67
2022/07/29 05:52:12;;;;;;;2.25;1.13;;;16.70;57.50;;;;;;5032837;28;20041;-68
2022/07/29 05:54:39;;;;;;;3.95;1.30;;;16.80;57.50;;;;;;5031484;28;20050;-67
2022/07/29 05:57:05;;;;;;;6.72;1.52;;;16.80;57.30;;;;;;5031691;28;20042;-63
2022/07/29 05:59:35;;;;;;;4.15;1.55;;;16.80;57.20;;;;;;5031474;28;20483;-67
2022/07/29 06:02:00;;;;;;;5.95;1.48;;;16.80;57.20;;;;;;5031485;28;20065;-67
2022/07/29 06:04:26;;;;;;;5.95;1.52;;;16.90;57.20;;;;;;5032650;28;20071;-64
2022/07/29 06:06:52;;;;;;;3.60;1.63;;;16.90;57.20;;;;;;5031338;28;20041;-64
2022/07/29 06:09:18;;;;;;;3.53;1.75;;;16.90;57.30;;;;;;5031369;28;20045;-64
2022/07/29 06:11:43;;;;;;;2.83;1.42;;;17.00;57.40;;;;;;5031617;28;20042;-63
2022/07/29 06:14:09;;;;;;;3.20;1.60;;;17.00;57.40;;;;;;5031293;28;20406;-63
2022/07/29 06:16:35;;;;;;;2.70;1.40;;;17.10;57.10;;;;;;5031235;28;20049;-63
2022/07/29 06:19:00;;;;;;;5.35;1.73;;;17.10;57.10;;;;;;5031164;28;20100;-65
2022/07/29 06:21:26;;;;;;;4.30;1.70;;;17.10;57.00;;;;;;5031036;28;20060;-63
2022/07/29 06:23:51;;;;;;;3.28;1.30;;;17.10;57.10;;;;;;5031085;28;20053;-63
2022/07/29 06:26:17;;;;;;;4.10;1.80;;;17.20;57.10;;;;;;5031181;28;20059;-64
2022/07/29 06:28:43;;;;;;;4.28;1.67;;;17.20;57.10;;;;;;5032512;28;20445;-63
2022/07/29 06:31:08;;;;;;;4.07;1.48;;;17.20;57.20;;;;;;5031190;28;20045;-69
2022/07/29 06:33:34;;;;;;;4.47;1.58;;;17.20;57.10;;;;;;5032420;28;20042;-68
2022/07/29 06:36:00;;;;;;;5.10;1.55;;;17.30;57.20;;;;;;5031249;28;20041;-69
2022/07/29 06:38:26;;;;;;;3.30;1.42;;;17.30;57.10;;;;;;5032382;28;20038;-67
2022/07/29 06:41:01;;;;;;;2.83;1.33;;;17.30;56.90;;;;;;5030973;28;20120;-67
2022/07/29 06:43:31;;;;;;;2.63;1.50;;;17.30;56.80;;;;;;5031315;28;20103;-62
2022/07/29 06:45:58;;;;;;;3.97;1.42;;;17.30;56.70;;;;;;5048227;28;20052;-63
2022/07/29 06:48:23;;;;;;;4.30;1.60;;;17.40;56.90;;;;;;5033692;28;20583;-68
2022/07/29 06:50:49;;;;;;;5.00;1.60;;;17.40;56.90;;;;;;5035220;28;20041;-68
2022/07/29 06:53:15;;;;;;;4.93;1.50;;;17.40;56.80;;;;;;5034273;28;20049;-68
2022/07/29 06:55:40;;;;;;;4.22;1.65;;;17.40;56.70;;;;;;5034313;28;20049;-63
2022/07/29 06:58:07;;;;;;;4.20;1.40;;;17.40;56.90;;;;;;5034217;28;20068;-63
2022/07/29 07:00:33;;;;;;;4.03;2.05;;;17.50;56.90;;;;;;5033956;28;20548;-64
2022/07/29 07:02:58;;;;;;;1.70;1.10;;;17.50;56.70;;;;;;5035512;28;20050;-67
2022/07/29 07:05:24;;;;;;;3.90;1.50;;;17.50;56.60;;;;;;5035198;28;20073;-68
2022/07/29 07:07:50;;;;;;;2.83;1.33;;;17.60;56.50;;;;;;5034069;28;20041;-67
2022/07/29 07:10:15;;;;;;;4.20;1.50;;;17.60;56.50;;;;;;5034120;28;20053;-67
2022/07/29 07:12:41;;;;;;;5.43;2.15;;;17.60;56.50;;;;;;5050574;28;20045;-67
2022/07/29 07:15:07;;;;;;;4.22;2.10;;;17.60;56.40;;;;;;5035444;28;20038;-67
2022/07/29 07:17:33;;;;;;;2.17;1.40;;;17.60;56.30;;;;;;5035417;28;20045;-67
2022/07/29 07:19:58;;;;;;;3.83;1.58;;;17.50;56.40;;;;;;5033772;28;20044;-67
2022/07/29 07:22:25;;;;;;;5.35;2.10;;;17.50;57.00;;;;;;5033801;28;20041;-67
2022/07/29 07:24:50;;;;;;;7.00;2.10;;;17.50;56.70;;;;;;5035003;28;20051;-67
2022/07/29 07:27:16;;;;;;;4.85;1.33;;;17.40;56.90;;;;;;5035007;28;20045;-67
2022/07/29 07:29:42;;;;;;;4.82;2.15;;;17.40;57.10;;;;;;5033692;28;20049;-68
2022/07/29 07:32:07;;;;;;;4.22;1.88;;;17.40;57.30;;;;;;5035053;28;20056;-69
2022/07/29 07:34:33;;;;;;;4.05;1.90;;;17.30;57.90;;;;;;5034006;28;20049;-68
2022/07/29 07:36:59;;;;;;;4.38;1.77;;;17.30;58.00;;;;;;5033616;28;20146;-68
2022/07/29 07:39:25;;;;;;;4.45;1.40;;;17.20;58.60;;;;;;5035170;28;20060;-67
2022/07/29 07:41:52;;;;;;;3.50;1.50;;;17.20;58.90;;;;;;5034769;28;20076;-67
2022/07/29 07:44:17;;;;;;;3.70;1.70;;;17.20;59.10;;;;;;5033474;28;20045;-67
2022/07/29 07:46:46;;;;;;;2.88;1.92;;;17.20;59.20;;;;;;5033853;28;20044;-68
2022/07/29 07:49:11;;;;;;;4.05;1.55;;;17.20;59.20;;;;;;5034611;28;20498;-66
2022/07/29 07:51:38;;;;;;;2.90;1.25;;;17.20;59.40;;;;;;5034789;28;20441;-67
2022/07/29 07:54:04;;;;;;;6.75;1.85;;;17.20;59.50;;;;;;5016761;28;20081;-66
2022/07/29 07:56:29;;;;;;;3.72;1.77;;;17.20;59.50;;;;;;5032522;28;20529;-68
2022/07/29 07:58:55;;;;;;;2.63;1.60;;;17.20;59.70;;;;;;5033004;28;20441;-68
2022/07/29 08:01:22;;;;;;;2.88;1.50;;;17.30;59.70;;;;;;5034548;28;20047;-68
2022/07/29 08:03:51;;;;;;;3.67;1.60;;;17.30;59.90;;;;;;5038953;28;20034;-67
2022/07/29 08:06:17;;;;;;;2.80;1.70;;;17.30;60.00;;;;;;5013313;28;20037;-67
2022/07/29 08:08:43;;;;;;;5.78;2.78;;;17.30;60.70;;;;;;5013319;28;20121;-67
2022/07/29 08:11:08;;;;;;;5.57;2.03;;;17.30;60.40;;;;;;5014475;28;20048;-67
2022/07/29 08:13:34;;;;;;;4.68;1.75;;;17.30;60.50;;;;;;5013353;28;20053;-69
2022/07/29 08:16:11;;;;;;;5.18;2.00;;;17.30;60.70;;;;;;5013374;28;20510;-67
2022/07/29 08:18:38;;;;;;;6.00;2.00;;;17.30;61.00;;;;;;5012926;28;20490;-67
2022/07/29 08:21:04;;;;;;;4.85;2.10;;;17.40;61.30;;;;;;5013010;28;20549;-67
2022/07/29 08:23:38;;;;;;;6.07;2.20;;;17.40;61.20;;;;;;5013815;28;20168;-67
2022/07/29 08:26:10;;;;;;;4.50;2.20;;;17.40;61.30;;;;;;5014636;28;20116;-66
2022/07/29 08:28:49;;;;;;;5.32;1.98;;;17.40;61.30;;;;;;5013316;28;20042;-67
2022/07/29 08:31:16;;;;;;;5.68;2.47;;;17.40;61.50;;;;;;5029558;28;20049;-67
2022/07/29 08:33:42;;;;;;;5.25;2.42;;;17.40;61.50;;;;;;5013114;28;20033;-67
2022/07/29 08:36:08;;;;;;;5.93;2.38;;;17.40;61.90;;;;;;5012761;28;20490;-67
2022/07/29 08:38:33;;;;;;;4.75;2.40;;;17.50;62.10;;;;;;5012630;28;20103;-66
2022/07/29 08:41:02;;;;;;;5.80;2.45;;;17.50;61.50;;;;;;5029128;28;20053;-68
2022/07/29 08:43:28;;;;;;;4.38;2.30;;;17.50;61.50;;;;;;5029150;28;20095;-67
2022/07/29 08:45:54;;;;;;;5.75;2.20;;;17.60;61.50;;;;;;5012901;28;20041;-67
2022/07/29 08:48:22;;;;;;;4.35;2.08;;;17.60;61.50;;;;;;5029023;28;20125;-67
2022/07/29 08:50:56;;;;;;;4.72;2.03;;;17.60;61.30;;;;;;5012509;28;20038;-66
2022/07/29 08:53:26;;;;;;;3.55;1.83;;;17.60;61.10;;;;;;5013655;28;20479;-67
2022/07/29 08:55:53;;;;;;;4.95;2.35;;;17.70;61.30;;;;;;5013940;28;20129;-67
2022/07/29 08:58:20;;;;;;;5.97;2.05;;;17.70;61.90;;;;;;5013625;28;20038;-67
2022/07/29 09:00:50;;;;;;;5.97;2.28;;;17.70;61.50;;;;;;5013443;28;20034;-68
2022/07/29 09:03:19;;;;;;;5.80;2.25;;;17.80;61.50;;;;;;5028707;28;20038;-68
2022/07/29 09:05:48;;;;;;;6.55;2.33;;;17.80;60.90;;;;;;5012215;28;20050;-67
2022/07/29 09:08:15;;;;;;;3.25;1.70;;;17.90;60.90;;;;;;5013220;28;20038;-68
2022/07/29 09:10:42;;;;;;;4.90;2.17;;;17.90;60.70;;;;;;5013479;28;20037;-69
2022/07/29 09:13:08;;;;;;;4.72;2.30;;;17.90;60.10;;;;;;5012594;28;20104;-68
2022/07/29 09:15:33;;;;;;;4.32;1.85;;;17.90;59.90;;;;;;5012003;28;20504;-69
2022/07/29 09:18:00;;;;;;;8.73;2.65;;;18.00;60.20;;;;;;5028516;28;20038;-68
2022/07/29 09:21:57;;;;;;;4.43;1.70;;;18.00;59.90;;;;;;5011825;28;20124;-69
2022/07/29 09:23:13;;;;;;;5.25;2.10;;;18.10;60.20;;;;;;5011957;28;20107;-68
2022/07/29 09:25:40;;;;;;;4.95;2.03;;;18.10;59.80;;;;;;5011870;28;20054;-68
2022/07/29 09:28:10;;;;;;;5.05;2.17;;;18.10;60.00;;;;;;5012047;28;20038;-69
2022/07/29 09:30:52;;;;;;;3.72;2.15;;;18.20;59.50;;;;;;5011841;28;20100;-63
2022/07/29 09:33:18;;;;;;;4.72;2.20;;;18.20;59.50;;;;;;5013044;28;20483;-67
2022/07/29 09:35:44;;;;;;;4.45;1.98;;;18.20;59.90;;;;;;5011895;28;20056;-67
2022/07/29 09:38:11;;;;;;;5.40;2.25;;;18.30;60.20;;;;;;5012048;28;20049;-68
2022/07/29 09:40:37;;;;;;;6.60;2.05;;;18.30;60.50;;;;;;5028203;28;20049;-69
2022/07/29 09:43:13;;;;;;;7.60;2.55;;;18.40;60.20;;;;;;5012971;28;20034;-67
2022/07/29 09:45:39;;;;;;;3.20;2.10;;;18.50;59.70;;;;;;5028453;28;20399;-67
2022/07/29 09:48:22;;;;;;;5.38;2.30;;;18.60;59.50;;;;;;5012941;28;20497;-68
2022/07/29 09:50:49;;;;;;;4.47;2.25;;;18.70;59.40;;;;;;5011944;28;20046;-68
2022/07/29 09:53:36;;;;;;;8.77;2.25;;;18.80;59.20;;;;;;5028263;28;20391;-67
2022/07/29 09:56:02;;;;;;;4.20;1.90;;;18.80;59.30;;;;;;5013056;28;20045;-68
2022/07/29 09:58:27;;;;;;;5.15;2.40;;;19.00;58.90;;;;;;5011715;28;20121;-68
2022/07/29 10:00:54;;;;;;;7.63;2.40;;;19.10;58.90;;;;;;5011610;28;20049;-68
2022/07/29 10:03:21;;;;;;;6.10;2.10;;;19.20;59.20;;;;;;5011578;28;20074;-68
2022/07/29 10:06:04;;;;;;;7.05;2.55;;;19.40;58.80;;;;;;5011535;28;20046;-67
2022/07/29 10:08:31;;;;;;;3.78;2.10;;;19.60;59.10;;;;;;5028082;28;20042;-67
2022/07/29 10:11:13;;;;;;;5.60;2.20;;;19.80;58.60;;;;;;5012900;28;20125;-68
2022/07/29 10:13:39;;;;;;;3.47;1.92;;;20.00;57.70;;;;;;5028005;28;20046;-68
2022/07/29 10:16:06;;;;;;;4.25;2.03;;;20.10;57.40;;;;;;5012836;28;20045;-68
2022/07/29 10:18:32;;;;;;;5.72;2.50;;;20.30;57.80;;;;;;5028939;28;20073;-69
2022/07/29 10:21:00;;;;;;;5.63;2.58;;;20.50;56.80;;;;;;5030185;28;20050;-68
2022/07/29 10:23:28;;;;;;;3.53;2.10;;;20.60;56.20;;;;;;5029203;28;20064;-64
2022/07/29 10:25:54;;;;;;;5.35;2.05;;;20.70;56.10;;;;;;5033599;28;20046;-63
2022/07/29 10:28:19;;;;;;;3.72;1.92;;;20.80;55.90;;;;;;5033534;28;20045;-62
2022/07/29 10:30:46;;;;;;;4.85;2.30;;;20.90;55.90;;;;;;5032230;28;20045;-62
2022/07/29 10:33:46;;;;;;;4.70;2.20;;;21.00;55.30;;;;;;5033281;28;20033;-63
2022/07/29 10:36:17;;;;;;;6.38;2.35;;;21.00;55.20;;;;;;5010739;28;20619;-63
2022/07/29 10:38:47;;;;;;;5.75;2.08;;;21.00;55.30;;;;;;5033647;28;20064;-62
2022/07/29 10:41:27;;;;;;;3.92;1.95;;;21.10;55.00;;;;;;5035831;28;20053;-62
2022/07/29 10:44:08;;;;;;;7.13;2.78;;;21.20;54.50;;;;;;5017882;28;20037;-62
2022/07/29 10:46:39;;;;;;;6.43;2.13;;;21.30;53.20;;;;;;5034832;28;20138;-62
2022/07/29 10:49:20;;;;;;;6.53;2.20;;;21.40;53.40;;;;;;5032850;28;20095;-62
2022/07/29 10:51:52;;;;;;;5.85;2.42;;;21.40;53.50;;;;;;5035557;28;20077;-62
2022/07/29 10:54:19;;;;;;;6.10;2.22;;;21.50;53.60;;;;;;5035689;28;20103;-63
2022/07/29 10:56:44;;;;;;;5.80;2.10;;;21.70;53.60;;;;;;5034563;28;20053;-63
2022/07/29 10:59:19;;;;;;;5.90;2.42;;;21.80;53.50;;;;;;5034602;28;20486;-63
2022/07/29 11:01:47;;;;;;;5.95;2.75;;;21.90;53.20;;;;;;5034239;28;20046;-62
2022/07/29 11:04:13;;;;;;;4.30;2.80;;;22.00;52.80;;;;;;5034172;28;20042;-62
2022/07/29 11:07:10;;;;;;;6.07;2.50;;;22.00;52.50;;;;;;5034258;28;20042;-63
2022/07/29 11:09:36;;;;;;;3.65;1.88;;;22.10;52.40;;;;;;5035543;28;20048;-63
2022/07/29 11:12:02;;;;;;;6.65;2.88;;;22.10;52.60;;;;;;5035394;28;20049;-62
2022/07/29 11:14:57;;;;;;;5.07;2.22;;;22.20;52.20;;;;;;5035435;28;20041;-62
2022/07/29 11:17:23;;;;;;;4.88;2.30;;;22.30;51.90;;;;;;5034371;28;20437;-62
2022/07/29 11:19:49;;;;;;;6.25;2.88;;;22.30;51.70;;;;;;5033974;28;20056;-63
2022/07/29 11:22:34;;;;;;;7.38;2.83;;;22.40;51.70;;;;;;5035211;28;20099;-63
2022/07/29 11:25:16;;;;;;;5.20;2.55;;;22.50;51.40;;;;;;5034957;28;20146;-63
2022/07/29 11:27:44;;;;;;;8.05;2.45;;;22.50;51.80;;;;;;5035135;28;20128;-62
2022/07/29 11:30:11;;;;;;;6.90;2.53;;;22.60;51.10;;;;;;5034073;28;20096;-62
2022/07/29 11:32:42;;;;;;;6.45;2.80;;;22.60;50.40;;;;;;5034655;28;20099;-67
2022/07/29 11:35:20;;;;;;;9.35;3.75;;;22.60;49.90;;;;;;5033770;28;20072;-67
2022/07/29 11:37:47;;;;;;;5.93;2.47;;;22.60;50.50;;;;;;5034920;28;20380;-67
2022/07/29 11:40:15;;;;;;;6.65;3.15;;;22.60;50.60;;;;;;5033603;28;20041;-67
2022/07/29 11:42:42;;;;;;;4.65;2.60;;;22.60;50.50;;;;;;5034809;28;20033;-67
2022/07/29 11:45:15;;;;;;;4.53;2.08;;;22.60;50.10;;;;;;5033639;28;20053;-68
2022/07/29 11:47:45;;;;;;;3.65;2.03;;;22.70;49.70;;;;;;5034905;28;20120;-68
2022/07/29 11:50:13;;;;;;;4.40;2.28;;;22.70;49.60;;;;;;5033403;28;20509;-67
2022/07/29 11:52:46;;;;;;;3.97;1.70;;;22.80;49.00;;;;;;5033532;28;20124;-67
2022/07/29 11:55:18;;;;;;;5.60;2.35;;;22.90;49.50;;;;;;5034575;28;20080;-68
2022/07/29 11:58:02;;;;;;;3.25;2.00;;;23.00;49.60;;;;;;5033323;28;20048;-67
2022/07/29 12:00:40;;;;;;;4.18;2.25;;;23.10;49.20;;;;;;5034383;28;20033;-68
2022/07/29 12:03:08;;;;;;;7.25;2.42;;;23.20;48.30;;;;;;5033216;28;20073;-67
2022/07/29 12:05:40;;;;;;;4.20;2.00;;;23.30;47.40;;;;;;5033161;28;20052;-67
2022/07/29 12:08:18;;;;;;;5.97;2.13;;;23.30;48.00;;;;;;5033159;28;20041;-67
2022/07/29 12:10:45;;;;;;;5.00;2.03;;;23.50;47.40;;;;;;5033098;28;20057;-67
2022/07/29 12:13:13;;;;;;;5.00;2.05;;;23.50;47.30;;;;;;5033281;28;20045;-68
2022/07/29 12:15:40;;;;;;;5.60;2.05;;;23.60;47.50;;;;;;5033031;28;20056;-67
2022/07/29 12:18:17;;;;;;;7.07;2.45;;;23.70;46.80;;;;;;5032913;28;20045;-67
2022/07/29 12:20:44;;;;;;;6.70;2.63;;;23.90;46.60;;;;;;5032917;28;20041;-67
2022/07/29 12:23:13;;;;;;;6.97;2.75;;;23.90;46.50;;;;;;5032768;28;20045;-68
2022/07/29 12:25:42;;;;;;;8.50;3.45;;;24.00;46.80;;;;;;5032616;28;20059;-68
2022/07/29 12:28:15;;;;;;;4.25;2.25;;;24.10;47.20;;;;;;5032970;28;20037;-68
2022/07/29 12:30:45;;;;;;;;;;;24.20;47.10;;;;;;5034383;28;20121;-67
2022/07/29 12:33:40;;;;;;;5.30;1.83;;;24.20;47.30;;;;;;5032600;28;19917;-67
2022/07/29 12:36:07;;;;;;;4.18;2.72;;;24.20;46.80;;;;;;5028511;28;20053;-67
2022/07/29 12:38:37;;;;;;;6.10;2.28;;;24.30;46.60;;;;;;5033943;28;20103;-68
2022/07/29 12:41:03;;;;;;;5.68;2.70;;;24.40;46.70;;;;;;5032400;28;20050;-64
2022/07/29 12:43:29;;;;;;;4.82;2.67;;;24.40;46.50;;;;;;5032783;28;20120;-63
2022/07/29 12:45:59;;;;;;;8.55;2.65;;;24.50;46.70;;;;;;5033640;28;20117;-63
2022/07/29 12:48:39;;;;;;;4.20;2.20;;;24.60;46.90;;;;;;5033462;28;20048;-63
2022/07/29 12:51:07;;;;;;;5.20;2.72;;;24.70;47.10;;;;;;5032582;28;20395;-63
2022/07/29 12:53:33;;;;;;;5.15;2.40;;;24.80;46.10;;;;;;5032202;28;20091;-63
2022/07/29 12:56:02;;;;;;;7.00;2.80;;;24.90;45.60;;;;;;5032317;28;20037;-63
2022/07/29 12:58:36;;;;;;;4.40;2.33;;;25.00;45.80;;;;;;5032130;28;20041;-63
2022/07/29 13:01:09;;;;;;;6.13;2.60;;;25.10;45.00;;;;;;5033250;28;20085;-63